sensor_id;sensor_type;location;lat;lon;timestamp;temperature;humidity
21176;DHT22;10746;50.178;8.186;2023-04-25T00:01:27;6.40;99.90
21176;DHT22;10746;50.178;8.186;2023-04-25T00:03:54;6.40;99.90
21176;DHT22;10746;50.178;8.186;2023-04-25T00:06:21;6.30;99.90
21176;DHT22;10746;50.178;8.186;2023-04-25T00:08:52;6.30;99.90
21176;DHT22;10746;50.178;8.186;2023-04-25T00:11:20;6.30;99.90
21176;DHT22;10746;50.178;8.186;2023-04-25T00:13:46;6.30;99.90
21176;DHT22;10746;50.178;8.186;2023-04-25T00:16:15;6.20;99.90
21176;DHT22;10746;50.178;8.186;2023-04-25T00:18:42;6.20;99.90
21176;DHT22;10746;50.178;8.186;2023-04-25T00:21:09;6.20;99.90
21176;DHT22;10746;50.178;8.186;2023-04-25T00:23:35;6.20;99.90
21176;DHT22;10746;50.178;8.186;2023-04-25T00:26:03;6.20;99.90
21176;DHT22;10746;50.178;8.186;2023-04-25T00:28:31;6.20;99.90
21176;DHT22;10746;50.178;8.186;2023-04-25T00:30:58;6.10;99.90
21176;DHT22;10746;50.178;8.186;2023-04-25T00:33:25;6.10;99.90
21176;DHT22;10746;50.178;8.186;2023-04-25T00:35:51;6.10;99.90
21176;DHT22;10746;50.178;8.186;2023-04-25T00:38:18;6.10;99.90
21176;DHT22;10746;50.178;8.186;2023-04-25T00:40:45;6.10;99.90
21176;DHT22;10746;50.178;8.186;2023-04-25T00:43:11;6.10;99.90
21176;DHT22;10746;50.178;8.186;2023-04-25T00:45:40;6.10;99.90
21176;DHT22;10746;50.178;8.186;2023-04-25T00:48:06;6.00;99.90
21176;DHT22;10746;50.178;8.186;2023-04-25T00:50:33;6.00;99.90
21176;DHT22;10746;50.178;8.186;2023-04-25T00:53:01;6.00;99.90
21176;DHT22;10746;50.178;8.186;2023-04-25T00:55:29;6.00;99.90
21176;DHT22;10746;50.178;8.186;2023-04-25T00:57:57;6.00;99.90
21176;DHT22;10746;50.178;8.186;2023-04-25T01:00:24;6.10;99.90
21176;DHT22;10746;50.178;8.186;2023-04-25T01:02:52;6.00;99.90
21176;DHT22;10746;50.178;8.186;2023-04-25T01:05:19;6.00;99.90
21176;DHT22;10746;50.178;8.186;2023-04-25T01:07:46;6.00;99.90
21176;DHT22;10746;50.178;8.186;2023-04-25T01:10:13;5.90;99.90
21176;DHT22;10746;50.178;8.186;2023-04-25T01:12:41;5.90;99.90
21176;DHT22;10746;50.178;8.186;2023-04-25T01:15:08;6.00;99.90
21176;DHT22;10746;50.178;8.186;2023-04-25T01:17:35;5.90;99.90
21176;DHT22;10746;50.178;8.186;2023-04-25T01:20:05;5.90;99.90
21176;DHT22;10746;50.178;8.186;2023-04-25T01:22:34;5.80;99.90
21176;DHT22;10746;50.178;8.186;2023-04-25T01:25:01;5.90;99.90
21176;DHT22;10746;50.178;8.186;2023-04-25T01:27:28;5.80;99.90
21176;DHT22;10746;50.178;8.186;2023-04-25T01:29:56;5.90;99.90
21176;DHT22;10746;50.178;8.186;2023-04-25T01:32:23;5.90;99.90
21176;DHT22;10746;50.178;8.186;2023-04-25T01:34:50;5.80;99.90
21176;DHT22;10746;50.178;8.186;2023-04-25T01:37:17;5.80;99.90
21176;DHT22;10746;50.178;8.186;2023-04-25T01:39:45;5.80;99.90
21176;DHT22;10746;50.178;8.186;2023-04-25T01:42:12;5.80;99.90
21176;DHT22;10746;50.178;8.186;2023-04-25T01:44:39;5.70;99.90
21176;DHT22;10746;50.178;8.186;2023-04-25T01:47:06;5.70;99.90
21176;DHT22;10746;50.178;8.186;2023-04-25T01:52:55;5.70;99.90
21176;DHT22;10746;50.178;8.186;2023-04-25T01:55:24;5.60;99.90
21176;DHT22;10746;50.178;8.186;2023-04-25T01:57:50;5.70;99.90
21176;DHT22;10746;50.178;8.186;2023-04-25T02:00:18;5.60;99.90
21176;DHT22;10746;50.178;8.186;2023-04-25T02:02:46;5.50;99.90
21176;DHT22;10746;50.178;8.186;2023-04-25T02:05:13;5.60;99.90
21176;DHT22;10746;50.178;8.186;2023-04-25T02:07:40;5.50;99.90
21176;DHT22;10746;50.178;8.186;2023-04-25T02:10:07;5.60;99.90
21176;DHT22;10746;50.178;8.186;2023-04-25T02:12:36;5.60;99.90
21176;DHT22;10746;50.178;8.186;2023-04-25T02:15:04;5.50;99.90
21176;DHT22;10746;50.178;8.186;2023-04-25T02:17:31;5.50;99.90
21176;DHT22;10746;50.178;8.186;2023-04-25T02:19:58;5.50;99.90
21176;DHT22;10746;50.178;8.186;2023-04-25T02:22:24;5.50;99.90
21176;DHT22;10746;50.178;8.186;2023-04-25T02:24:54;5.40;99.90
21176;DHT22;10746;50.178;8.186;2023-04-25T02:27:21;5.50;99.90
21176;DHT22;10746;50.178;8.186;2023-04-25T02:29:49;5.50;99.90
21176;DHT22;10746;50.178;8.186;2023-04-25T02:32:16;5.40;99.90
21176;DHT22;10746;50.178;8.186;2023-04-25T02:34:42;5.40;99.90
21176;DHT22;10746;50.178;8.186;2023-04-25T02:37:09;5.40;99.90
21176;DHT22;10746;50.178;8.186;2023-04-25T02:39:36;5.40;99.90
21176;DHT22;10746;50.178;8.186;2023-04-25T02:42:03;5.30;99.90
21176;DHT22;10746;50.178;8.186;2023-04-25T02:44:29;5.30;99.90
21176;DHT22;10746;50.178;8.186;2023-04-25T02:46:57;5.30;99.90
21176;DHT22;10746;50.178;8.186;2023-04-25T02:49:24;5.20;99.90
21176;DHT22;10746;50.178;8.186;2023-04-25T02:51:51;5.20;99.90
21176;DHT22;10746;50.178;8.186;2023-04-25T02:54:17;5.10;99.90
21176;DHT22;10746;50.178;8.186;2023-04-25T02:56:44;5.00;99.90
21176;DHT22;10746;50.178;8.186;2023-04-25T02:59:11;5.00;99.90
21176;DHT22;10746;50.178;8.186;2023-04-25T03:01:37;4.90;99.90
21176;DHT22;10746;50.178;8.186;2023-04-25T03:04:05;4.80;99.90
21176;DHT22;10746;50.178;8.186;2023-04-25T03:06:32;4.70;99.90
21176;DHT22;10746;50.178;8.186;2023-04-25T03:08:59;4.70;99.90
21176;DHT22;10746;50.178;8.186;2023-04-25T03:11:25;4.70;99.90
21176;DHT22;10746;50.178;8.186;2023-04-25T03:13:52;4.60;99.90
21176;DHT22;10746;50.178;8.186;2023-04-25T03:16:19;4.60;99.90
21176;DHT22;10746;50.178;8.186;2023-04-25T03:18:45;4.50;99.90
21176;DHT22;10746;50.178;8.186;2023-04-25T03:21:13;4.50;99.90
21176;DHT22;10746;50.178;8.186;2023-04-25T03:23:40;4.40;99.90
21176;DHT22;10746;50.178;8.186;2023-04-25T03:26:07;4.40;99.90
21176;DHT22;10746;50.178;8.186;2023-04-25T03:28:33;4.30;99.90
21176;DHT22;10746;50.178;8.186;2023-04-25T03:31:00;4.30;99.90
21176;DHT22;10746;50.178;8.186;2023-04-25T03:33:27;4.20;99.90
21176;DHT22;10746;50.178;8.186;2023-04-25T03:35:53;4.20;99.90
21176;DHT22;10746;50.178;8.186;2023-04-25T03:38:21;4.20;99.90
21176;DHT22;10746;50.178;8.186;2023-04-25T03:40:49;4.10;99.90
21176;DHT22;10746;50.178;8.186;2023-04-25T03:43:16;4.10;99.90
21176;DHT22;10746;50.178;8.186;2023-04-25T03:45:43;4.10;99.90
21176;DHT22;10746;50.178;8.186;2023-04-25T03:48:10;4.00;99.90
21176;DHT22;10746;50.178;8.186;2023-04-25T03:50:36;4.00;99.90
21176;DHT22;10746;50.178;8.186;2023-04-25T03:53:03;4.00;99.90
21176;DHT22;10746;50.178;8.186;2023-04-25T03:55:31;4.00;99.90
21176;DHT22;10746;50.178;8.186;2023-04-25T03:57:58;3.90;99.90
21176;DHT22;10746;50.178;8.186;2023-04-25T04:00:25;3.90;99.90
21176;DHT22;10746;50.178;8.186;2023-04-25T04:02:52;3.80;99.90
21176;DHT22;10746;50.178;8.186;2023-04-25T04:05:19;3.80;99.90
21176;DHT22;10746;50.178;8.186;2023-04-25T04:07:45;3.90;99.90
21176;DHT22;10746;50.178;8.186;2023-04-25T04:10:12;3.80;99.90
21176;DHT22;10746;50.178;8.186;2023-04-25T04:12:40;3.80;99.90
21176;DHT22;10746;50.178;8.186;2023-04-25T04:15:09;3.80;99.90
21176;DHT22;10746;50.178;8.186;2023-04-25T04:17:36;3.80;99.90
21176;DHT22;10746;50.178;8.186;2023-04-25T04:20:03;3.80;99.90
21176;DHT22;10746;50.178;8.186;2023-04-25T04:22:32;3.90;99.90
21176;DHT22;10746;50.178;8.186;2023-04-25T04:24:59;3.90;99.90
21176;DHT22;10746;50.178;8.186;2023-04-25T04:27:26;3.90;99.90
21176;DHT22;10746;50.178;8.186;2023-04-25T04:29:55;3.80;99.90
21176;DHT22;10746;50.178;8.186;2023-04-25T04:32:23;3.80;99.90
21176;DHT22;10746;50.178;8.186;2023-04-25T04:34:50;3.80;99.90
21176;DHT22;10746;50.178;8.186;2023-04-25T04:37:17;3.80;99.90
21176;DHT22;10746;50.178;8.186;2023-04-25T04:39:44;3.80;99.90
21176;DHT22;10746;50.178;8.186;2023-04-25T04:42:11;3.80;99.90
21176;DHT22;10746;50.178;8.186;2023-04-25T04:44:38;3.80;99.90
21176;DHT22;10746;50.178;8.186;2023-04-25T04:47:06;3.80;99.90
21176;DHT22;10746;50.178;8.186;2023-04-25T04:49:33;3.80;99.90
21176;DHT22;10746;50.178;8.186;2023-04-25T04:52:00;3.80;99.90
21176;DHT22;10746;50.178;8.186;2023-04-25T04:54:26;3.80;99.90
21176;DHT22;10746;50.178;8.186;2023-04-25T04:56:53;3.80;99.90
21176;DHT22;10746;50.178;8.186;2023-04-25T04:59:20;3.80;99.90
21176;DHT22;10746;50.178;8.186;2023-04-25T05:01:46;3.80;99.90
21176;DHT22;10746;50.178;8.186;2023-04-25T05:04:14;3.80;99.90
21176;DHT22;10746;50.178;8.186;2023-04-25T05:06:41;3.80;99.90
21176;DHT22;10746;50.178;8.186;2023-04-25T05:09:08;3.90;99.90
21176;DHT22;10746;50.178;8.186;2023-04-25T05:11:35;3.90;99.90
21176;DHT22;10746;50.178;8.186;2023-04-25T05:14:01;4.00;99.90
21176;DHT22;10746;50.178;8.186;2023-04-25T05:16:28;4.00;99.90
21176;DHT22;10746;50.178;8.186;2023-04-25T05:18:55;4.00;99.90
21176;DHT22;10746;50.178;8.186;2023-04-25T05:21:23;4.00;99.90
21176;DHT22;10746;50.178;8.186;2023-04-25T05:23:49;4.00;99.90
21176;DHT22;10746;50.178;8.186;2023-04-25T05:26:16;4.00;99.90
21176;DHT22;10746;50.178;8.186;2023-04-25T05:28:43;4.00;99.90
21176;DHT22;10746;50.178;8.186;2023-04-25T05:31:10;4.00;99.90
21176;DHT22;10746;50.178;8.186;2023-04-25T05:33:37;4.10;99.90
21176;DHT22;10746;50.178;8.186;2023-04-25T05:36:04;4.10;99.90
21176;DHT22;10746;50.178;8.186;2023-04-25T05:38:33;4.10;99.90
21176;DHT22;10746;50.178;8.186;2023-04-25T05:40:59;4.10;99.90
21176;DHT22;10746;50.178;8.186;2023-04-25T05:43:26;4.20;99.90
21176;DHT22;10746;50.178;8.186;2023-04-25T05:45:53;4.20;99.90
21176;DHT22;10746;50.178;8.186;2023-04-25T05:48:19;4.30;99.90
21176;DHT22;10746;50.178;8.186;2023-04-25T05:50:46;4.50;99.90
21176;DHT22;10746;50.178;8.186;2023-04-25T05:53:13;4.60;99.90
21176;DHT22;10746;50.178;8.186;2023-04-25T05:55:41;4.80;99.90
21176;DHT22;10746;50.178;8.186;2023-04-25T05:58:08;5.20;99.90
21176;DHT22;10746;50.178;8.186;2023-04-25T06:00:34;5.60;99.90
21176;DHT22;10746;50.178;8.186;2023-04-25T06:03:01;5.90;99.90
21176;DHT22;10746;50.178;8.186;2023-04-25T06:05:28;6.10;99.90
21176;DHT22;10746;50.178;8.186;2023-04-25T06:07:55;6.30;99.90
21176;DHT22;10746;50.178;8.186;2023-04-25T06:10:22;6.50;99.90
21176;DHT22;10746;50.178;8.186;2023-04-25T06:12:50;6.70;99.90
21176;DHT22;10746;50.178;8.186;2023-04-25T06:15:17;6.80;99.90
21176;DHT22;10746;50.178;8.186;2023-04-25T06:17:43;6.80;99.90
21176;DHT22;10746;50.178;8.186;2023-04-25T06:20:11;6.80;99.90
21176;DHT22;10746;50.178;8.186;2023-04-25T06:22:38;6.80;99.90
21176;DHT22;10746;50.178;8.186;2023-04-25T06:25:05;6.90;99.90
21176;DHT22;10746;50.178;8.186;2023-04-25T06:27:32;6.70;99.90
21176;DHT22;10746;50.178;8.186;2023-04-25T06:30:00;6.50;99.90
21176;DHT22;10746;50.178;8.186;2023-04-25T06:32:27;6.40;99.90
21176;DHT22;10746;50.178;8.186;2023-04-25T06:34:55;6.40;99.90
21176;DHT22;10746;50.178;8.186;2023-04-25T06:37:22;6.40;99.90
21176;DHT22;10746;50.178;8.186;2023-04-25T06:39:48;6.40;99.90
21176;DHT22;10746;50.178;8.186;2023-04-25T06:42:15;6.40;99.90
21176;DHT22;10746;50.178;8.186;2023-04-25T06:44:42;6.20;99.90
21176;DHT22;10746;50.178;8.186;2023-04-25T06:47:10;6.10;99.90
21176;DHT22;10746;50.178;8.186;2023-04-25T06:49:36;6.00;99.90
21176;DHT22;10746;50.178;8.186;2023-04-25T06:52:03;5.90;99.90
21176;DHT22;10746;50.178;8.186;2023-04-25T06:54:30;6.10;99.90
21176;DHT22;10746;50.178;8.186;2023-04-25T06:56:57;6.00;99.90
21176;DHT22;10746;50.178;8.186;2023-04-25T06:59:23;6.10;99.90
21176;DHT22;10746;50.178;8.186;2023-04-25T07:01:50;6.20;99.90
21176;DHT22;10746;50.178;8.186;2023-04-25T07:04:18;6.30;99.90
21176;DHT22;10746;50.178;8.186;2023-04-25T07:06:45;6.40;99.90
21176;DHT22;10746;50.178;8.186;2023-04-25T07:09:13;6.60;99.90
21176;DHT22;10746;50.178;8.186;2023-04-25T07:11:40;6.50;99.90
21176;DHT22;10746;50.178;8.186;2023-04-25T07:14:07;6.60;99.90
21176;DHT22;10746;50.178;8.186;2023-04-25T07:16:33;7.00;99.90
21176;DHT22;10746;50.178;8.186;2023-04-25T07:19:00;7.10;99.90
21176;DHT22;10746;50.178;8.186;2023-04-25T07:21:28;7.10;99.90
21176;DHT22;10746;50.178;8.186;2023-04-25T07:23:56;7.10;99.90
21176;DHT22;10746;50.178;8.186;2023-04-25T07:26:23;7.10;99.90
21176;DHT22;10746;50.178;8.186;2023-04-25T07:28:50;6.90;99.90
21176;DHT22;10746;50.178;8.186;2023-04-25T07:31:17;6.90;99.90
21176;DHT22;10746;50.178;8.186;2023-04-25T07:33:44;7.00;99.90
21176;DHT22;10746;50.178;8.186;2023-04-25T07:36:11;7.10;99.90
21176;DHT22;10746;50.178;8.186;2023-04-25T07:38:39;7.00;99.90
21176;DHT22;10746;50.178;8.186;2023-04-25T07:41:06;7.10;99.90
21176;DHT22;10746;50.178;8.186;2023-04-25T07:43:33;7.20;99.90
21176;DHT22;10746;50.178;8.186;2023-04-25T07:45:59;7.10;99.90
21176;DHT22;10746;50.178;8.186;2023-04-25T07:48:26;7.10;99.90
21176;DHT22;10746;50.178;8.186;2023-04-25T07:50:53;7.00;99.90
21176;DHT22;10746;50.178;8.186;2023-04-25T07:53:20;7.10;99.90
21176;DHT22;10746;50.178;8.186;2023-04-25T07:55:48;7.20;99.90
21176;DHT22;10746;50.178;8.186;2023-04-25T07:58:14;7.20;99.90
21176;DHT22;10746;50.178;8.186;2023-04-25T08:00:46;7.10;99.90
21176;DHT22;10746;50.178;8.186;2023-04-25T08:03:13;7.00;99.90
21176;DHT22;10746;50.178;8.186;2023-04-25T08:05:39;7.10;99.90
21176;DHT22;10746;50.178;8.186;2023-04-25T08:08:06;7.00;99.90
21176;DHT22;10746;50.178;8.186;2023-04-25T08:10:33;7.00;99.90
21176;DHT22;10746;50.178;8.186;2023-04-25T08:13:01;6.90;99.90
21176;DHT22;10746;50.178;8.186;2023-04-25T08:15:28;7.00;99.90
21176;DHT22;10746;50.178;8.186;2023-04-25T08:17:55;7.00;99.90
21176;DHT22;10746;50.178;8.186;2023-04-25T08:20:21;6.90;99.90
21176;DHT22;10746;50.178;8.186;2023-04-25T08:22:48;6.80;99.90
21176;DHT22;10746;50.178;8.186;2023-04-25T08:25:15;6.80;99.90
21176;DHT22;10746;50.178;8.186;2023-04-25T08:27:42;6.90;99.90
21176;DHT22;10746;50.178;8.186;2023-04-25T08:30:11;6.90;99.90
21176;DHT22;10746;50.178;8.186;2023-04-25T08:32:38;7.00;99.90
21176;DHT22;10746;50.178;8.186;2023-04-25T08:35:05;7.10;99.90
21176;DHT22;10746;50.178;8.186;2023-04-25T08:37:32;7.10;99.90
21176;DHT22;10746;50.178;8.186;2023-04-25T08:39:58;7.30;99.90
21176;DHT22;10746;50.178;8.186;2023-04-25T08:42:27;7.40;99.90
21176;DHT22;10746;50.178;8.186;2023-04-25T08:44:54;7.70;99.90
21176;DHT22;10746;50.178;8.186;2023-04-25T08:47:23;8.20;99.90
21176;DHT22;10746;50.178;8.186;2023-04-25T08:49:52;8.20;99.90
21176;DHT22;10746;50.178;8.186;2023-04-25T08:52:21;8.10;99.90
21176;DHT22;10746;50.178;8.186;2023-04-25T08:54:49;8.20;99.90
21176;DHT22;10746;50.178;8.186;2023-04-25T08:57:17;8.30;99.90
21176;DHT22;10746;50.178;8.186;2023-04-25T08:59:45;8.40;99.90
21176;DHT22;10746;50.178;8.186;2023-04-25T09:02:13;8.40;99.90
21176;DHT22;10746;50.178;8.186;2023-04-25T09:04:44;8.50;99.90
21176;DHT22;10746;50.178;8.186;2023-04-25T09:07:11;8.70;99.90
21176;DHT22;10746;50.178;8.186;2023-04-25T09:09:38;8.90;99.90
21176;DHT22;10746;50.178;8.186;2023-04-25T09:12:05;8.80;99.90
21176;DHT22;10746;50.178;8.186;2023-04-25T09:14:32;8.80;99.90
21176;DHT22;10746;50.178;8.186;2023-04-25T09:17:00;8.50;99.90
21176;DHT22;10746;50.178;8.186;2023-04-25T09:19:28;8.20;99.90
21176;DHT22;10746;50.178;8.186;2023-04-25T09:21:58;7.80;99.90
21176;DHT22;10746;50.178;8.186;2023-04-25T09:24:36;7.70;99.90
21176;DHT22;10746;50.178;8.186;2023-04-25T09:27:04;7.50;99.90
21176;DHT22;10746;50.178;8.186;2023-04-25T09:29:32;7.40;99.90
21176;DHT22;10746;50.178;8.186;2023-04-25T09:32:14;7.30;99.90
21176;DHT22;10746;50.178;8.186;2023-04-25T09:34:42;7.40;99.90
21176;DHT22;10746;50.178;8.186;2023-04-25T09:37:11;7.50;99.90
21176;DHT22;10746;50.178;8.186;2023-04-25T09:39:38;7.70;99.90
21176;DHT22;10746;50.178;8.186;2023-04-25T09:42:05;7.90;99.90
21176;DHT22;10746;50.178;8.186;2023-04-25T09:44:32;8.50;99.90
21176;DHT22;10746;50.178;8.186;2023-04-25T09:46:59;8.80;99.90
21176;DHT22;10746;50.178;8.186;2023-04-25T09:49:26;9.10;99.90
21176;DHT22;10746;50.178;8.186;2023-04-25T09:51:57;9.20;99.90
21176;DHT22;10746;50.178;8.186;2023-04-25T09:54:26;9.20;99.90
21176;DHT22;10746;50.178;8.186;2023-04-25T09:56:53;9.10;99.90
21176;DHT22;10746;50.178;8.186;2023-04-25T09:59:21;9.00;99.90
21176;DHT22;10746;50.178;8.186;2023-04-25T10:01:49;9.00;99.90
21176;DHT22;10746;50.178;8.186;2023-04-25T10:04:20;9.20;99.90
21176;DHT22;10746;50.178;8.186;2023-04-25T10:06:49;9.10;99.90
21176;DHT22;10746;50.178;8.186;2023-04-25T10:09:19;8.90;99.90
21176;DHT22;10746;50.178;8.186;2023-04-25T10:11:48;8.60;99.90
21176;DHT22;10746;50.178;8.186;2023-04-25T10:14:16;8.40;99.90
21176;DHT22;10746;50.178;8.186;2023-04-25T10:16:43;8.30;99.90
21176;DHT22;10746;50.178;8.186;2023-04-25T10:19:10;8.10;99.90
21176;DHT22;10746;50.178;8.186;2023-04-25T10:21:44;8.00;99.90
21176;DHT22;10746;50.178;8.186;2023-04-25T10:24:11;7.80;99.90
21176;DHT22;10746;50.178;8.186;2023-04-25T10:26:39;7.80;99.90
21176;DHT22;10746;50.178;8.186;2023-04-25T10:29:09;7.70;99.90
21176;DHT22;10746;50.178;8.186;2023-04-25T10:31:45;7.80;99.90
21176;DHT22;10746;50.178;8.186;2023-04-25T10:34:12;7.70;99.90
21176;DHT22;10746;50.178;8.186;2023-04-25T10:36:39;7.80;99.90
21176;DHT22;10746;50.178;8.186;2023-04-25T10:39:06;7.70;99.90
21176;DHT22;10746;50.178;8.186;2023-04-25T10:41:45;7.80;99.90
21176;DHT22;10746;50.178;8.186;2023-04-25T10:44:14;7.70;99.90
21176;DHT22;10746;50.178;8.186;2023-04-25T10:46:40;7.90;99.90
21176;DHT22;10746;50.178;8.186;2023-04-25T10:49:08;7.80;99.90
21176;DHT22;10746;50.178;8.186;2023-04-25T10:51:36;8.00;99.90
21176;DHT22;10746;50.178;8.186;2023-04-25T10:54:05;7.90;99.90
21176;DHT22;10746;50.178;8.186;2023-04-25T10:56:33;8.00;99.90
21176;DHT22;10746;50.178;8.186;2023-04-25T10:59:08;8.00;99.90
21176;DHT22;10746;50.178;8.186;2023-04-25T11:01:38;8.30;99.90
21176;DHT22;10746;50.178;8.186;2023-04-25T11:04:05;8.60;99.90
21176;DHT22;10746;50.178;8.186;2023-04-25T11:06:42;8.80;99.90
21176;DHT22;10746;50.178;8.186;2023-04-25T11:09:12;9.10;99.90
21176;DHT22;10746;50.178;8.186;2023-04-25T11:11:39;9.20;99.90
21176;DHT22;10746;50.178;8.186;2023-04-25T11:14:06;8.90;99.90
21176;DHT22;10746;50.178;8.186;2023-04-25T11:16:33;8.90;99.90
21176;DHT22;10746;50.178;8.186;2023-04-25T11:19:03;9.00;99.90
21176;DHT22;10746;50.178;8.186;2023-04-25T11:21:31;9.10;99.90
21176;DHT22;10746;50.178;8.186;2023-04-25T11:23:58;9.20;99.90
21176;DHT22;10746;50.178;8.186;2023-04-25T11:26:25;9.30;99.90
21176;DHT22;10746;50.178;8.186;2023-04-25T11:28:55;9.30;99.90
21176;DHT22;10746;50.178;8.186;2023-04-25T11:31:25;9.30;99.90
21176;DHT22;10746;50.178;8.186;2023-04-25T11:33:53;9.20;99.90
21176;DHT22;10746;50.178;8.186;2023-04-25T11:36:22;9.20;99.90
21176;DHT22;10746;50.178;8.186;2023-04-25T11:38:50;9.50;99.90
21176;DHT22;10746;50.178;8.186;2023-04-25T11:41:17;9.70;99.90
21176;DHT22;10746;50.178;8.186;2023-04-25T11:43:43;9.90;99.90
21176;DHT22;10746;50.178;8.186;2023-04-25T11:46:10;10.00;99.90
21176;DHT22;10746;50.178;8.186;2023-04-25T11:48:38;9.90;99.90
21176;DHT22;10746;50.178;8.186;2023-04-25T11:51:05;9.80;99.90
21176;DHT22;10746;50.178;8.186;2023-04-25T11:53:33;9.40;99.90
21176;DHT22;10746;50.178;8.186;2023-04-25T11:56:00;9.30;99.90
21176;DHT22;10746;50.178;8.186;2023-04-25T11:58:28;9.40;99.90
21176;DHT22;10746;50.178;8.186;2023-04-25T12:00:54;9.30;99.90
21176;DHT22;10746;50.178;8.186;2023-04-25T12:03:24;9.10;99.90
21176;DHT22;10746;50.178;8.186;2023-04-25T12:05:52;9.10;99.90
21176;DHT22;10746;50.178;8.186;2023-04-25T12:08:19;9.10;99.90
21176;DHT22;10746;50.178;8.186;2023-04-25T12:10:47;9.10;99.90
21176;DHT22;10746;50.178;8.186;2023-04-25T12:13:21;9.00;99.90
21176;DHT22;10746;50.178;8.186;2023-04-25T12:15:48;8.90;99.90
21176;DHT22;10746;50.178;8.186;2023-04-25T12:18:18;8.70;99.90
21176;DHT22;10746;50.178;8.186;2023-04-25T12:20:45;8.70;99.90
21176;DHT22;10746;50.178;8.186;2023-04-25T12:23:11;8.70;99.90
21176;DHT22;10746;50.178;8.186;2023-04-25T12:25:39;8.80;99.90
21176;DHT22;10746;50.178;8.186;2023-04-25T12:28:12;9.50;99.90
21176;DHT22;10746;50.178;8.186;2023-04-25T12:30:55;10.80;99.90
21176;DHT22;10746;50.178;8.186;2023-04-25T12:33:22;11.90;99.90
21176;DHT22;10746;50.178;8.186;2023-04-25T12:35:49;12.00;99.90
21176;DHT22;10746;50.178;8.186;2023-04-25T12:38:27;11.40;99.90
21176;DHT22;10746;50.178;8.186;2023-04-25T12:40:54;10.70;99.90
21176;DHT22;10746;50.178;8.186;2023-04-25T12:43:22;10.50;99.90
21176;DHT22;10746;50.178;8.186;2023-04-25T12:45:50;10.60;99.90
21176;DHT22;10746;50.178;8.186;2023-04-25T12:48:17;10.50;99.90
21176;DHT22;10746;50.178;8.186;2023-04-25T12:50:44;10.40;99.90
21176;DHT22;10746;50.178;8.186;2023-04-25T12:53:13;10.60;99.90
21176;DHT22;10746;50.178;8.186;2023-04-25T12:55:39;10.40;99.90
21176;DHT22;10746;50.178;8.186;2023-04-25T12:58:06;10.20;99.90
21176;DHT22;10746;50.178;8.186;2023-04-25T13:00:35;10.30;99.90
21176;DHT22;10746;50.178;8.186;2023-04-25T13:03:02;10.20;99.90
21176;DHT22;10746;50.178;8.186;2023-04-25T13:05:30;10.40;99.90
21176;DHT22;10746;50.178;8.186;2023-04-25T13:07:56;10.40;99.90
21176;DHT22;10746;50.178;8.186;2023-04-25T13:10:23;10.30;99.90
21176;DHT22;10746;50.178;8.186;2023-04-25T13:12:50;9.90;99.90
21176;DHT22;10746;50.178;8.186;2023-04-25T13:15:17;9.70;99.90
21176;DHT22;10746;50.178;8.186;2023-04-25T13:17:45;9.50;99.90
21176;DHT22;10746;50.178;8.186;2023-04-25T13:20:12;9.50;99.90
21176;DHT22;10746;50.178;8.186;2023-04-25T13:22:40;9.70;99.90
21176;DHT22;10746;50.178;8.186;2023-04-25T13:25:08;10.70;99.90
21176;DHT22;10746;50.178;8.186;2023-04-25T13:27:35;11.30;99.90
21176;DHT22;10746;50.178;8.186;2023-04-25T13:30:03;11.30;99.90
21176;DHT22;10746;50.178;8.186;2023-04-25T13:32:33;11.30;99.90
21176;DHT22;10746;50.178;8.186;2023-04-25T13:35:03;11.10;99.90
21176;DHT22;10746;50.178;8.186;2023-04-25T13:37:30;10.70;99.90
21176;DHT22;10746;50.178;8.186;2023-04-25T13:39:59;10.30;99.90
21176;DHT22;10746;50.178;8.186;2023-04-25T13:42:25;10.00;99.90
21176;DHT22;10746;50.178;8.186;2023-04-25T13:44:52;9.70;99.90
21176;DHT22;10746;50.178;8.186;2023-04-25T13:47:19;9.50;99.90
21176;DHT22;10746;50.178;8.186;2023-04-25T13:49:45;9.60;99.90
21176;DHT22;10746;50.178;8.186;2023-04-25T13:52:13;10.20;99.90
21176;DHT22;10746;50.178;8.186;2023-04-25T13:54:40;11.90;99.90
21176;DHT22;10746;50.178;8.186;2023-04-25T13:57:07;13.20;99.90
21176;DHT22;10746;50.178;8.186;2023-04-25T13:59:34;14.00;99.90
21176;DHT22;10746;50.178;8.186;2023-04-25T14:02:00;14.00;99.90
21176;DHT22;10746;50.178;8.186;2023-04-25T14:04:27;12.90;99.90
21176;DHT22;10746;50.178;8.186;2023-04-25T14:06:54;11.80;99.90
21176;DHT22;10746;50.178;8.186;2023-04-25T14:09:22;11.10;99.90
21176;DHT22;10746;50.178;8.186;2023-04-25T14:11:51;10.40;99.90
21176;DHT22;10746;50.178;8.186;2023-04-25T14:14:17;10.20;99.90
21176;DHT22;10746;50.178;8.186;2023-04-25T14:16:44;10.00;99.90
21176;DHT22;10746;50.178;8.186;2023-04-25T14:19:11;9.70;99.90
21176;DHT22;10746;50.178;8.186;2023-04-25T14:21:38;9.40;99.90
21176;DHT22;10746;50.178;8.186;2023-04-25T14:24:05;9.30;99.90
21176;DHT22;10746;50.178;8.186;2023-04-25T14:26:33;9.20;99.90
21176;DHT22;10746;50.178;8.186;2023-04-25T14:29:00;9.20;99.90
21176;DHT22;10746;50.178;8.186;2023-04-25T14:31:27;9.00;99.90
21176;DHT22;10746;50.178;8.186;2023-04-25T14:33:54;8.80;99.90
21176;DHT22;10746;50.178;8.186;2023-04-25T14:36:20;8.70;99.90
21176;DHT22;10746;50.178;8.186;2023-04-25T14:38:47;8.70;99.90
21176;DHT22;10746;50.178;8.186;2023-04-25T14:41:14;8.90;99.90
21176;DHT22;10746;50.178;8.186;2023-04-25T14:43:42;9.20;99.90
21176;DHT22;10746;50.178;8.186;2023-04-25T14:46:10;9.30;99.90
21176;DHT22;10746;50.178;8.186;2023-04-25T14:48:37;9.40;99.90
21176;DHT22;10746;50.178;8.186;2023-04-25T14:51:04;9.60;99.90
21176;DHT22;10746;50.178;8.186;2023-04-25T14:53:31;9.90;99.90
21176;DHT22;10746;50.178;8.186;2023-04-25T14:55:58;10.60;99.90
21176;DHT22;10746;50.178;8.186;2023-04-25T14:58:24;11.30;99.90
21176;DHT22;10746;50.178;8.186;2023-04-25T15:00:52;11.00;99.90
21176;DHT22;10746;50.178;8.186;2023-04-25T15:03:19;10.90;99.90
21176;DHT22;10746;50.178;8.186;2023-04-25T15:05:46;10.60;99.90
21176;DHT22;10746;50.178;8.186;2023-04-25T15:08:13;10.30;99.90
21176;DHT22;10746;50.178;8.186;2023-04-25T15:10:40;10.40;99.90
21176;DHT22;10746;50.178;8.186;2023-04-25T15:13:06;10.40;99.90
21176;DHT22;10746;50.178;8.186;2023-04-25T15:15:34;10.40;99.90
21176;DHT22;10746;50.178;8.186;2023-04-25T15:18:02;10.30;99.90
21176;DHT22;10746;50.178;8.186;2023-04-25T15:20:29;10.30;99.90
21176;DHT22;10746;50.178;8.186;2023-04-25T15:22:56;10.00;99.90
21176;DHT22;10746;50.178;8.186;2023-04-25T15:25:23;10.10;99.90
21176;DHT22;10746;50.178;8.186;2023-04-25T15:27:50;10.10;99.90
21176;DHT22;10746;50.178;8.186;2023-04-25T15:30:17;10.10;99.90
21176;DHT22;10746;50.178;8.186;2023-04-25T15:32:45;10.40;99.90
21176;DHT22;10746;50.178;8.186;2023-04-25T15:35:14;10.80;99.90
21176;DHT22;10746;50.178;8.186;2023-04-25T15:37:41;11.20;99.90
21176;DHT22;10746;50.178;8.186;2023-04-25T15:40:09;10.90;99.90
21176;DHT22;10746;50.178;8.186;2023-04-25T15:42:38;11.20;99.90
21176;DHT22;10746;50.178;8.186;2023-04-25T15:45:06;12.50;99.90
21176;DHT22;10746;50.178;8.186;2023-04-25T15:47:35;13.20;99.90
21176;DHT22;10746;50.178;8.186;2023-04-25T15:50:03;13.30;99.90